Time;durP1;ratioP1;P1;durP2;ratioP2;P2;SDS_P1;SDS_P2;PMS_P1;PMS_P2;Temp;Humidity;BMP_temperature;BMP_pressure;BME280_temperature;BME280_humidity;BME280_pressure;Samples;Min_cycle;Max_cycle;Signal;HPM_P1;HPM_P2
2022/10/17 00:00:54;;;;;;;5.40;4.67;;;;;;;-143.84;50.08;45136.66;5093460;28;20505;-74
2022/10/17 00:03:21;;;;;;;4.50;3.50;;;;;;;-143.84;50.16;45132.84;5094078;28;20442;-74
2022/10/17 00:05:50;;;;;;;6.17;4.50;;;;;;;-143.84;50.35;45129.03;5094197;28;20485;-74
2022/10/17 00:08:18;;;;;;;25.03;4.10;;;;;;;-143.84;50.23;45138.56;5094047;28;20436;-74
2022/10/17 00:10:46;;;;;;;21.87;4.90;;;;;;;-143.84;50.48;45153.81;5093307;28;20432;-74
2022/10/17 00:13:13;;;;;;;5.30;3.80;;;;;;;-143.84;50.90;45113.81;5093452;28;20432;-74
2022/10/17 00:15:44;;;;;;;7.57;4.43;;;;;;;-143.84;50.75;45134.75;5092909;28;20478;-74
2022/10/17 00:18:11;;;;;;;8.97;4.50;;;;;;;-143.84;50.48;45121.44;5093768;28;20838;-74
2022/10/17 00:20:38;;;;;;;13.07;4.37;;;;;;;-143.84;50.88;45138.56;5093459;28;20906;-74
2022/10/17 00:23:07;;;;;;;5.90;4.13;;;;;;;-143.84;51.55;45136.66;5093081;28;20453;-73
2022/10/17 00:25:34;;;;;;;7.63;4.80;;;;;;;-143.84;51.72;45121.44;5092602;28;20806;-73
2022/10/17 00:28:01;;;;;;;7.83;4.70;;;;;;;-143.84;52.35;45110.00;5092757;28;20448;-73
2022/10/17 00:30:29;;;;;;;6.20;4.40;;;;;;;-143.84;52.38;45129.03;5092356;28;20446;-73
2022/10/17 00:32:56;;;;;;;5.17;4.40;;;;;;;-143.84;52.64;45121.44;5092402;28;20444;-73
2022/10/17 00:35:23;;;;;;;7.53;4.03;;;;;;;-143.84;52.74;45132.84;5092651;28;20459;-73
2022/10/17 00:37:50;;;;;;;5.13;4.60;;;;;;;-143.84;52.61;45134.75;5092374;28;20548;-73
2022/10/17 00:40:19;;;;;;;5.63;4.03;;;;;;;-143.84;52.53;45144.28;5092560;28;20951;-73
2022/10/17 00:42:46;;;;;;;7.57;5.20;;;;;;;-143.84;52.30;45129.03;5092389;28;20440;-73
2022/10/17 00:45:20;;;;;;;5.27;4.40;;;;;;;-143.84;52.12;45136.66;5091920;28;20990;-73
2022/10/17 00:47:51;;;;;;;10.10;4.80;;;;;;;-143.84;52.25;45123.34;5091622;28;20443;-73
2022/10/17 00:50:19;;;;;;;16.33;4.80;;;;;;;-143.84;51.39;45108.09;5092401;28;20440;-74
2022/10/17 00:52:48;;;;;;;12.60;5.10;;;;;;;-143.84;51.21;45115.72;5091334;28;20518;-73
2022/10/17 00:55:20;;;;;;;5.73;4.83;;;;;;;-143.84;51.17;45106.19;5090231;28;20440;-73
2022/10/17 00:57:48;;;;;;;12.00;5.27;;;;;;;-143.84;50.89;45111.91;5092272;28;20538;-74
2022/10/17 01:00:17;;;;;;;4.47;4.07;;;;;;;-143.84;51.04;45129.03;5092906;28;20899;-74
2022/10/17 01:02:45;;;;;;;11.97;5.40;;;;;;;-143.84;50.99;45140.47;5092595;28;20437;-73
2022/10/17 01:05:13;;;;;;;7.73;4.73;;;;;;;-143.84;51.27;45129.03;5092827;28;20875;-73
2022/10/17 01:07:42;;;;;;;10.33;4.70;;;;;;;-143.84;51.39;45125.22;5093451;28;20441;-73
2022/10/17 01:10:10;;;;;;;7.03;4.00;;;;;;;-143.84;51.80;45119.53;5092750;28;20449;-74
2022/10/17 01:12:53;;;;;;;5.67;4.43;;;;;;;-143.84;51.77;45106.19;5092467;28;20497;-74
2022/10/17 01:15:29;;;;;;;5.53;4.30;;;;;;;-143.84;51.96;45092.88;5091919;28;20453;-74
2022/10/17 01:18:08;;;;;;;5.40;3.73;;;;;;;-143.84;52.01;45134.75;5092005;28;20478;-73
2022/10/17 01:21:03;;;;;;;4.40;3.77;;;;;;;-143.84;52.32;45100.47;5092497;28;20437;-74
2022/10/17 01:24:11;;;;;;;8.37;4.80;;;;;;;-143.84;52.24;45121.44;5092195;28;20506;-74
2022/10/17 01:26:52;;;;;;;5.80;3.93;;;;;;;-143.84;51.96;45127.13;5070460;28;20440;-74
2022/10/17 01:29:36;;;;;;;4.83;4.00;;;;;;;-143.84;51.83;45123.34;5092198;28;20495;-74
2022/10/17 01:32:10;;;;;;;9.37;5.10;;;;;;;-143.84;51.53;45144.28;5092471;28;20883;-73
2022/10/17 01:34:44;;;;;;;6.47;4.37;;;;;;;-143.84;51.77;45117.63;5092614;28;20465;-73
2022/10/17 01:37:21;;;;;;;4.70;3.63;;;;;;;-143.84;51.37;45129.03;5091944;28;20510;-73
2022/10/17 01:39:52;;;;;;;5.93;4.10;;;;;;;-143.84;51.05;45125.22;5092611;28;20853;-73
2022/10/17 01:42:26;;;;;;;6.43;4.90;;;;;;;-143.84;50.83;45144.28;5092585;28;20506;-73
2022/10/17 01:44:58;;;;;;;6.97;4.50;;;;;;;-143.84;50.56;45132.84;5092751;28;20496;-73
2022/10/17 01:47:30;;;;;;;5.80;4.27;;;;;;;-143.84;50.34;45132.84;5092577;28;20432;-73
2022/10/17 01:50:02;;;;;;;7.50;4.33;;;;;;;-143.84;50.42;45127.13;5092686;28;20921;-73
2022/10/17 01:52:35;;;;;;;5.50;4.33;;;;;;;-143.84;50.62;45127.13;5092250;28;20510;-73
2022/10/17 01:55:09;;;;;;;9.17;5.17;;;;;;;-143.84;50.63;45111.91;5092324;28;20832;-73
2022/10/17 01:57:40;;;;;;;6.23;4.83;;;;;;;-143.84;50.58;45119.53;5092537;28;20993;-73
2022/10/17 02:00:12;;;;;;;6.10;4.97;;;;;;;-143.84;50.63;45110.00;5092213;28;20434;-73
2022/10/17 02:02:43;;;;;;;4.60;4.20;;;;;;;-143.84;50.49;45130.94;5092205;28;20442;-73
2022/10/17 02:05:10;;;;;;;7.13;4.53;;;;;;;-143.84;50.46;45108.09;5092067;28;20515;-73
2022/10/17 02:07:37;;;;;;;13.00;5.07;;;;;;;-143.84;49.86;45129.03;5092082;28;20498;-73
2022/10/17 02:10:10;;;;;;;10.77;4.73;;;;;;;-143.84;49.82;45108.09;5092126;28;20497;-73
2022/10/17 02:12:49;;;;;;;6.93;5.60;;;;;;;-143.84;49.13;45142.38;5092060;28;20948;-73
2022/10/17 02:15:38;;;;;;;6.33;4.17;;;;;;;-143.84;49.12;45130.94;5091849;28;20447;-73
2022/10/17 02:18:18;;;;;;;6.40;4.20;;;;;;;-143.84;49.08;45132.84;5091700;28;20497;-73
2022/10/17 02:20:53;;;;;;;6.50;4.63;;;;;;;-143.84;49.20;45125.22;5091728;28;20871;-73
2022/10/17 02:23:32;;;;;;;8.23;4.40;;;;;;;-143.84;49.36;45121.44;5091754;28;20497;-73
2022/10/17 02:26:07;;;;;;;6.60;4.80;;;;;;;-143.84;49.57;45117.63;5091542;28;20440;-73
2022/10/17 02:28:43;;;;;;;8.70;5.00;;;;;;;-143.84;49.32;45125.22;5091711;28;20925;-73
2022/10/17 02:31:15;;;;;;;9.77;4.20;;;;;;;-143.84;49.70;45111.91;5091750;28;20435;-73
2022/10/17 02:33:49;;;;;;;8.13;4.43;;;;;;;-143.84;49.84;45102.38;5091600;28;20440;-73
2022/10/17 02:36:20;;;;;;;5.57;4.90;;;;;;;-143.84;49.93;45108.09;5091833;28;20429;-73
2022/10/17 02:38:49;;;;;;;6.50;4.90;;;;;;;-143.84;50.39;45125.22;5091338;28;20475;-73
2022/10/17 02:41:19;;;;;;;6.03;3.80;;;;;;;-143.84;50.87;45104.28;5091276;28;20516;-73
2022/10/17 02:43:48;;;;;;;20.20;3.93;;;;;;;-143.84;51.04;45110.00;5091587;28;20837;-73
2022/10/17 02:46:20;;;;;;;11.30;4.53;;;;;;;-143.84;51.68;45121.44;5091381;28;20866;-73
2022/10/17 02:48:52;;;;;;;5.17;3.90;;;;;;;-143.84;51.69;45123.34;5090560;28;20439;-73
2022/10/17 02:51:28;;;;;;;11.63;4.27;;;;;;;-143.84;51.72;45111.91;5091316;28;20503;-73
2022/10/17 02:54:05;;;;;;;12.73;4.80;;;;;;;-143.84;51.90;45146.19;5091294;28;20992;-73
2022/10/17 02:56:38;;;;;;;6.57;4.50;;;;;;;-143.84;52.04;45115.72;5091672;28;20436;-73
2022/10/17 02:59:08;;;;;;;5.40;3.87;;;;;;;-143.84;52.87;45123.34;5091435;28;20475;-73
2022/10/17 03:01:36;;;;;;;6.17;5.13;;;;;;;-143.84;52.92;45121.44;5091443;28;20501;-73
2022/10/17 03:04:11;;;;;;;5.50;4.50;;;;;;;-143.84;54.03;45134.75;5091345;28;20440;-73
2022/10/17 03:06:38;;;;;;;6.80;4.63;;;;;;;-143.84;54.62;45125.22;5091768;28;20779;-73
2022/10/17 03:09:07;;;;;;;11.13;4.80;;;;;;;-143.84;55.27;45115.72;5090819;28;20506;-73
2022/10/17 03:11:34;;;;;;;8.80;4.80;;;;;;;-143.84;55.74;45104.28;5091136;28;21067;-73
2022/10/17 03:14:01;;;;;;;6.87;4.13;;;;;;;-143.84;56.55;45144.28;5090969;28;20512;-73
2022/10/17 03:16:28;;;;;;;8.30;4.57;;;;;;;-143.84;56.45;45146.19;5090987;28;20551;-73
2022/10/17 03:18:56;;;;;;;8.83;4.33;;;;;;;-143.84;56.08;45136.66;5091362;28;20474;-73
2022/10/17 03:21:24;;;;;;;12.07;6.10;;;;;;;-143.84;55.85;45132.84;5091351;28;20456;-73
2022/10/17 03:23:51;;;;;;;4.93;3.63;;;;;;;-143.84;55.51;45144.28;5091113;28;20444;-73
2022/10/17 03:26:18;;;;;;;6.87;4.57;;;;;;;-143.84;54.42;45104.28;5091631;28;20428;-73
2022/10/17 03:28:45;;;;;;;5.90;3.57;;;;;;;-143.84;53.65;45100.47;5091211;28;20950;-73
2022/10/17 03:31:15;;;;;;;6.00;3.53;;;;;;;-143.84;53.22;45121.44;5091378;28;20428;-73
2022/10/17 03:33:43;;;;;;;5.10;4.30;;;;;;;-143.84;52.37;45142.38;5091523;28;20441;-73
2022/10/17 03:36:13;;;;;;;6.00;3.60;;;;;;;-143.84;52.37;45140.47;5091162;28;20446;-73
2022/10/17 03:38:43;;;;;;;10.67;4.60;;;;;;;-143.84;52.51;45130.94;5090761;28;20479;-73
2022/10/17 03:41:10;;;;;;;7.30;4.60;;;;;;;-143.84;52.26;45134.75;5091203;28;20437;-73
2022/10/17 03:43:37;;;;;;;22.13;4.53;;;;;;;-143.84;52.16;45129.03;5091020;28;20437;-73
2022/10/17 03:46:04;;;;;;;4.83;4.20;;;;;;;-143.84;52.21;45134.75;5090803;28;20507;-73
2022/10/17 03:48:32;;;;;;;9.40;4.30;;;;;;;-143.84;52.36;45127.13;5090807;28;20434;-73
2022/10/17 03:51:01;;;;;;;12.50;4.80;;;;;;;-143.84;51.96;45130.94;5090691;28;20431;-73
2022/10/17 03:53:28;;;;;;;11.13;4.27;;;;;;;-143.84;51.75;45127.13;5090226;28;20857;-74
2022/10/17 03:55:57;;;;;;;7.53;4.60;;;;;;;-143.84;51.95;45102.38;5090717;28;20934;-73
2022/10/17 03:58:24;;;;;;;4.87;4.47;;;;;;;-143.84;51.46;45140.47;5089264;28;20545;-74
2022/10/17 04:00:52;;;;;;;8.43;4.77;;;;;;;-143.84;51.76;45130.94;5094141;28;20900;-74
2022/10/17 04:03:19;;;;;;;7.40;4.73;;;;;;;-143.84;51.58;45129.03;5080572;28;20464;-73
2022/10/17 04:05:46;;;;;;;11.80;5.17;;;;;;;-143.84;51.25;45110.00;5082564;28;20448;-74
2022/10/17 04:08:13;;;;;;;5.87;4.47;;;;;;;-143.84;51.50;45127.13;5083743;28;20938;-74
2022/10/17 04:10:40;;;;;;;14.10;5.27;;;;;;;-143.84;51.87;45140.47;5074308;28;20464;-74
2022/10/17 04:13:09;;;;;;;10.13;5.63;;;;;;;-143.84;51.13;45130.94;5073628;28;20434;-74
2022/10/17 04:15:36;;;;;;;7.60;4.93;;;;;;;-143.84;52.65;45134.75;5076276;28;20487;-73
2022/10/17 04:18:03;;;;;;;7.13;4.77;;;;;;;-143.84;52.43;45136.66;5073753;28;20559;-74
2022/10/17 04:20:31;;;;;;;8.97;5.20;;;;;;;-143.84;51.45;45121.44;5073769;28;20484;-73
2022/10/17 04:22:58;;;;;;;9.37;4.27;;;;;;;-143.84;51.58;45125.22;5073653;28;21100;-74
2022/10/17 04:25:25;;;;;;;8.30;4.13;;;;;;;-143.84;52.61;45136.66;5073105;28;20425;-73
2022/10/17 04:27:52;;;;;;;9.70;4.10;;;;;;;-143.84;51.37;45113.81;5071850;28;20545;-74
2022/10/17 04:30:21;;;;;;;6.97;4.30;;;;;;;-143.84;51.51;45148.09;5072650;28;20441;-74
2022/10/17 04:32:48;;;;;;;10.40;3.90;;;;;;;-143.84;51.62;45140.47;5072140;28;20440;-73
2022/10/17 04:35:15;;;;;;;5.90;4.00;;;;;;;-143.84;52.72;45121.44;5083029;28;20452;-74
2022/10/17 04:37:42;;;;;;;7.80;4.40;;;;;;;-143.84;52.89;45127.13;5092129;28;20501;-75
2022/10/17 04:40:10;;;;;;;8.27;4.50;;;;;;;-143.84;53.05;45142.38;5077959;28;20441;-74
2022/10/17 04:42:38;;;;;;;5.57;4.00;;;;;;;-143.84;53.76;45134.75;5071733;28;20436;-74
2022/10/17 04:45:06;;;;;;;9.80;3.80;;;;;;;-143.84;54.23;45142.38;5072050;28;20514;-73
2022/10/17 04:47:35;;;;;;;9.80;3.80;;;;;;;-143.84;53.61;45144.28;5078153;28;20444;-73
2022/10/17 04:50:02;;;;;;;6.17;4.60;;;;;;;-143.84;53.26;45111.91;5091704;28;20506;-73
2022/10/17 04:52:29;;;;;;;8.27;4.03;;;;;;;-143.84;53.57;45115.72;5091803;28;20926;-73
2022/10/17 04:54:56;;;;;;;6.40;3.70;;;;;;;-143.84;54.13;45146.19;5091379;28;20441;-73
2022/10/17 04:57:23;;;;;;;11.80;3.70;;;;;;;-143.84;54.19;45142.38;5091622;28;20447;-74
2022/10/17 04:59:50;;;;;;;5.60;3.70;;;;;;;-143.84;54.41;45121.44;5091727;28;20532;-73
2022/10/17 05:02:17;;;;;;;6.03;4.00;;;;;;;-143.84;54.68;45151.91;5091822;28;20440;-73
2022/10/17 05:04:46;;;;;;;4.57;4.00;;;;;;;-143.84;55.23;45125.22;5091380;28;20501;-73
2022/10/17 05:07:13;;;;;;;7.20;4.10;;;;;;;-143.84;56.19;45108.09;5091656;28;20442;-73
2022/10/17 05:09:40;;;;;;;6.13;4.13;;;;;;;-143.84;56.96;45106.19;5091356;28;20938;-73
2022/10/17 05:12:07;;;;;;;5.17;3.63;;;;;;;-143.84;56.75;45136.66;5090443;28;20440;-73
2022/10/17 05:14:34;;;;;;;6.23;3.47;;;;;;;-143.84;56.68;45129.03;5091375;28;20521;-73
2022/10/17 05:17:01;;;;;;;11.13;4.13;;;;;;;-143.84;57.50;45129.03;5090942;28;20998;-73
2022/10/17 05:19:29;;;;;;;10.53;4.67;;;;;;;-143.84;57.25;45144.28;5090715;28;21017;-73
2022/10/17 05:21:58;;;;;;;13.10;4.33;;;;;;;-143.84;57.06;45098.56;5090697;28;20432;-72
2022/10/17 05:24:25;;;;;;;8.30;3.70;;;;;;;-143.84;57.67;45119.53;5090860;28;20537;-72
2022/10/17 05:26:52;;;;;;;5.20;3.70;;;;;;;-143.84;57.87;45096.66;5090392;28;20441;-72
2022/10/17 05:29:19;;;;;;;10.67;4.73;;;;;;;-143.84;58.46;45110.00;5090585;28;20444;-73
2022/10/17 05:31:47;;;;;;;12.90;4.30;;;;;;;-143.84;58.56;45150.00;5090306;28;20494;-73
2022/10/17 05:34:14;;;;;;;16.13;4.37;;;;;;;-143.84;58.62;45138.56;5089689;28;20446;-71
2022/10/17 05:36:41;;;;;;;6.50;4.03;;;;;;;-143.84;58.53;45121.44;5090736;28;20468;-72
2022/10/17 05:39:09;;;;;;;5.77;4.17;;;;;;;-143.84;58.47;45127.13;5090884;28;20484;-72
2022/10/17 05:41:36;;;;;;;9.40;3.70;;;;;;;-143.84;58.97;45125.22;5091359;28;20939;-72
2022/10/17 05:44:04;;;;;;;13.63;3.80;;;;;;;-143.84;59.13;45140.47;5091457;28;20515;-72
2022/10/17 05:46:31;;;;;;;12.00;4.87;;;;;;;-143.84;60.29;45127.13;5091526;28;20838;-72
2022/10/17 05:48:58;;;;;;;13.30;4.53;;;;;;;-143.84;60.91;45106.19;5090662;28;20503;-72
2022/10/17 05:51:25;;;;;;;13.20;3.47;;;;;;;-143.84;61.06;45132.84;5091218;28;20943;-72
2022/10/17 05:53:52;;;;;;;5.30;4.13;;;;;;;-143.84;61.36;45125.22;5090818;28;20856;-72
2022/10/17 05:56:21;;;;;;;7.60;3.50;;;;;;;-143.84;61.63;45129.03;5090909;28;20513;-71
2022/10/17 05:58:48;;;;;;;10.73;4.53;;;;;;;-143.84;62.01;45102.38;5090738;28;20490;-71
2022/10/17 06:01:15;;;;;;;6.90;3.97;;;;;;;-143.84;62.23;45121.44;5090624;28;20677;-71
2022/10/17 06:03:42;;;;;;;4.03;3.30;;;;;;;-143.84;61.94;45121.44;5090286;28;20442;-72
2022/10/17 06:06:11;;;;;;;7.20;4.13;;;;;;;-143.84;61.97;45125.22;5090970;28;20461;-72
2022/10/17 06:08:39;;;;;;;7.17;4.30;;;;;;;-143.84;62.90;45130.94;5090576;28;20837;-71
2022/10/17 06:11:06;;;;;;;6.73;4.80;;;;;;;-143.84;64.17;45140.47;5090616;28;20439;-71
2022/10/17 06:13:35;;;;;;;6.60;4.17;;;;;;;-143.84;64.82;45119.53;5077294;28;20462;-71
2022/10/17 06:16:02;;;;;;;6.77;3.87;;;;;;;-143.84;64.16;45094.78;5069418;28;20489;-71
2022/10/17 06:18:30;;;;;;;10.60;4.80;;;;;;;-143.84;63.71;45100.47;5070928;28;20491;-72
2022/10/17 06:21:02;;;;;;;4.67;4.00;;;;;;;-143.84;62.77;45098.56;5069434;28;20475;-72
2022/10/17 06:23:30;;;;;;;7.23;4.50;;;;;;;-143.84;61.72;45094.78;5070396;28;20464;-72
2022/10/17 06:25:59;;;;;;;9.50;4.07;;;;;;;-143.84;60.89;45100.47;5069158;28;20460;-71
2022/10/17 06:28:27;;;;;;;14.53;4.67;;;;;;;-143.84;60.50;45079.53;5069132;28;21242;-72
2022/10/17 06:30:55;;;;;;;6.13;3.80;;;;;;;-143.84;59.01;45104.28;5069039;28;20442;-71
2022/10/17 06:33:23;;;;;;;9.43;4.67;;;;;;;-143.84;58.30;45129.03;5070880;28;20972;-74
2022/10/17 06:35:54;;;;;;;7.10;4.80;;;;;;;-143.84;56.88;45092.88;5069220;28;20537;-74
2022/10/17 06:38:21;;;;;;;8.00;4.10;;;;;;;-143.84;56.59;45077.63;5072694;28;20457;-74
2022/10/17 06:40:49;;;;;;;14.70;4.83;;;;;;;-143.84;55.92;45096.66;5069040;28;20452;-74
2022/10/17 06:43:16;;;;;;;14.30;4.30;;;;;;;-143.84;54.52;45092.88;5072741;28;20436;-74
2022/10/17 06:45:45;;;;;;;11.00;5.30;;;;;;;-143.84;53.79;45102.38;5069114;28;20980;-74
2022/10/17 06:48:14;;;;;;;8.73;4.70;;;;;;;-143.84;53.21;45052.88;5069544;28;20444;-74
2022/10/17 06:50:41;;;;;;;12.60;5.30;;;;;;;-143.84;52.28;45100.47;5073446;28;20456;-74
2022/10/17 06:53:08;;;;;;;12.10;5.30;;;;;;;-143.84;51.82;45087.16;5075280;28;20490;-74
2022/10/17 06:55:35;;;;;;;13.13;5.47;;;;;;;-143.84;50.56;45071.91;5073153;28;20985;-74
2022/10/17 06:58:02;;;;;;;13.27;4.47;;;;;;;-143.84;50.26;45085.25;5069720;28;20449;-74
2022/10/17 07:00:30;;;;;;;12.87;4.40;;;;;;;-143.84;49.11;45064.31;5069164;28;20488;-74
2022/10/17 07:02:57;;;;;;;10.73;4.03;;;;;;;-143.84;48.36;45066.22;5071984;28;21296;-74
2022/10/17 07:05:25;;;;;;;10.80;5.00;;;;;;;-143.84;48.71;45066.22;5078508;28;20449;-75
2022/10/17 07:07:52;;;;;;;10.93;4.47;;;;;;;-143.84;47.66;45070.00;5069227;28;20456;-75
2022/10/17 07:10:19;;;;;;;12.27;4.80;;;;;;;-143.84;46.49;45043.34;5068957;28;21047;-74
2022/10/17 07:12:47;;;;;;;7.50;3.67;;;;;;;-143.84;46.90;45035.75;5076175;28;20960;-74
2022/10/17 07:15:14;;;;;;;5.70;4.47;;;;;;;-143.84;45.69;45089.06;5072306;28;20459;-75
2022/10/17 07:17:41;;;;;;;6.03;3.60;;;;;;;-143.84;46.25;45049.06;5070432;28;20850;-75
2022/10/17 07:20:09;;;;;;;7.70;3.90;;;;;;;-143.84;46.75;45064.31;5074325;28;20554;-75
2022/10/17 07:22:38;;;;;;;8.73;3.43;;;;;;;-143.84;45.87;45060.50;5071053;28;20449;-75
2022/10/17 07:25:06;;;;;;;10.93;4.17;;;;;;;-143.84;45.24;45047.16;5072954;28;20449;-75
2022/10/17 07:27:33;;;;;;;3.57;3.27;;;;;;;-143.84;45.14;45049.06;5069226;28;20529;-75
2022/10/17 07:30:00;;;;;;;9.60;3.40;;;;;;;-143.84;44.56;45052.88;5069121;28;20461;-74
2022/10/17 07:32:27;;;;;;;7.27;4.33;;;;;;;-143.84;44.81;45052.88;5070706;28;20441;-74
2022/10/17 07:34:55;;;;;;;10.73;3.80;;;;;;;-143.84;45.07;45054.78;5079310;28;20467;-74
2022/10/17 07:37:22;;;;;;;8.10;3.43;;;;;;;-143.84;44.84;45052.88;5072840;28;20452;-75
2022/10/17 07:39:50;;;;;;;3.97;3.63;;;;;;;-143.84;44.32;45039.53;5072988;28;20516;-75
2022/10/17 07:42:17;;;;;;;12.23;4.23;;;;;;;-143.84;44.61;45028.13;5077274;28;20679;-75
2022/10/17 07:44:46;;;;;;;9.50;4.07;;;;;;;-143.84;44.39;45047.16;5075878;28;20453;-75
2022/10/17 07:47:13;;;;;;;5.90;3.90;;;;;;;-143.84;43.33;45054.78;5072837;28;20448;-75
2022/10/17 07:49:42;;;;;;;10.20;4.13;;;;;;;-143.84;42.96;45037.66;5072745;28;20456;-75
2022/10/17 07:52:10;;;;;;;5.90;3.70;;;;;;;-143.84;42.48;45049.06;5072861;28;20448;-74
2022/10/17 07:54:38;;;;;;;7.00;3.40;;;;;;;-143.84;41.57;45030.03;5071545;28;20534;-74
2022/10/17 07:57:07;;;;;;;10.23;3.67;;;;;;;-143.84;42.11;45047.16;5071478;28;20444;-74
2022/10/17 07:59:35;;;;;;;3.50;2.77;;;;;;;-143.84;41.71;45009.09;5071344;28;20487;-74
2022/10/17 08:02:02;;;;;;;4.70;3.10;;;;;;;-143.84;42.04;45030.03;5071722;28;20451;-75
2022/10/17 08:04:29;;;;;;;12.10;3.00;;;;;;;-143.84;41.72;45039.53;5071195;28;20440;-74
2022/10/17 08:06:57;;;;;;;7.37;3.77;;;;;;;-143.84;41.03;45016.69;5071511;28;21333;-74
2022/10/17 08:09:24;;;;;;;8.80;3.67;;;;;;;-143.84;39.77;45014.78;5075799;28;20460;-74
2022/10/17 08:11:51;;;;;;;3.60;3.30;;;;;;;-143.84;39.08;45033.84;5071364;28;20444;-74
2022/10/17 08:14:19;;;;;;;7.27;3.40;;;;;;;-143.84;39.48;45014.78;5072698;28;20519;-74
2022/10/17 08:16:47;;;;;;;12.73;4.23;;;;;;;-143.84;39.60;45022.41;5057668;28;20492;-74
2022/10/17 08:19:14;;;;;;;7.37;3.53;;;;;;;-143.84;38.88;45014.78;5051482;28;20500;-74
2022/10/17 08:21:42;;;;;;;5.00;3.07;;;;;;;-143.84;39.33;45043.34;5051575;28;20542;-74
2022/10/17 08:24:09;;;;;;;6.03;3.70;;;;;;;-143.84;38.53;45012.88;5051469;28;20464;-74
2022/10/17 08:26:37;;;;;;;6.53;3.10;;;;;;;-143.84;38.46;45018.59;5053282;28;20458;-74
2022/10/17 08:29:04;;;;;;;5.37;3.27;;;;;;;-143.84;38.82;45014.78;5050768;28;20445;-74
2022/10/17 08:31:32;;;;;;;9.73;3.57;;;;;;;-143.84;38.84;45014.78;5050954;28;20453;-74
2022/10/17 08:33:59;;;;;;;4.87;3.17;;;;;;;-143.84;37.68;45037.66;5051690;28;20466;-74
2022/10/17 08:36:28;;;;;;;4.43;3.17;;;;;;;-143.84;37.65;45022.41;5050953;28;20449;-74
2022/10/17 08:38:55;;;;;;;5.90;3.13;;;;;;;-143.84;37.77;45007.19;5050703;28;20515;-74
2022/10/17 08:41:40;;;;;;;5.37;3.20;;;;;;;-143.84;37.26;45018.59;5050756;28;20449;-74
2022/10/17 08:44:21;;;;;;;3.13;2.73;;;;;;;-143.84;36.63;45014.78;5051822;28;20943;-74
2022/10/17 08:46:55;;;;;;;4.37;3.30;;;;;;;-143.84;37.33;44982.41;5049256;28;20461;-74
2022/10/17 08:49:41;;;;;;;6.47;2.50;;;;;;;-143.84;36.88;45005.28;5050716;28;20457;-74
2022/10/17 08:52:20;;;;;;;2.87;2.67;;;;;;;-143.84;37.44;44993.84;5050673;28;20468;-74
2022/10/17 08:54:49;;;;;;;5.37;3.00;;;;;;;-143.84;37.58;45018.59;5050815;28;20449;-74
2022/10/17 08:57:17;;;;;;;8.83;3.67;;;;;;;-143.84;37.00;44984.31;5050277;28;20955;-74
2022/10/17 08:59:50;;;;;;;8.33;3.47;;;;;;;-143.84;37.23;45001.47;5050332;28;20489;-74
2022/10/17 09:02:39;;;;;;;6.00;2.93;;;;;;;-143.84;36.68;45016.69;5050507;28;20453;-72
2022/10/17 09:05:25;;;;;;;7.80;3.27;;;;;;;-143.84;37.38;45007.19;5051474;28;20426;-74
2022/10/17 09:08:02;;;;;;;9.23;2.83;;;;;;;-143.84;37.16;45018.59;5051557;28;20446;-74
2022/10/17 09:10:35;;;;;;;10.47;2.87;;;;;;;-143.84;36.36;44991.94;5051750;28;20827;-74
2022/10/17 09:13:14;;;;;;;4.10;3.10;;;;;;;-143.84;36.97;44997.66;5051219;28;20452;-74
2022/10/17 09:15:57;;;;;;;8.10;2.77;;;;;;;-143.84;36.64;45005.28;5055905;28;20554;-74
2022/10/17 09:18:30;;;;;;;3.73;2.73;;;;;;;-143.84;36.90;45026.22;5071630;28;20498;-74
2022/10/17 09:21:04;;;;;;;5.70;2.67;;;;;;;-143.84;36.81;45012.88;5071431;28;20492;-74
2022/10/17 09:23:37;;;;;;;4.57;2.47;;;;;;;-143.84;37.39;45018.59;5071395;28;20451;-74
2022/10/17 09:26:05;;;;;;;4.43;2.60;;;;;;;-143.84;36.10;45014.78;5071762;28;21326;-74
2022/10/17 09:28:35;;;;;;;7.23;2.90;;;;;;;-143.84;35.89;45030.03;5071493;28;20437;-74
2022/10/17 09:31:05;;;;;;;3.30;2.10;;;;;;;-143.84;36.76;45012.88;5071674;28;20437;-74
2022/10/17 09:33:38;;;;;;;9.17;3.50;;;;;;;-143.84;35.41;44993.84;5071572;28;21012;-74
2022/10/17 09:36:10;;;;;;;9.20;2.63;;;;;;;-143.84;35.89;44999.56;5071756;28;20870;-74
2022/10/17 09:38:40;;;;;;;4.63;3.10;;;;;;;-143.84;36.31;45016.69;5083891;28;20433;-74
2022/10/17 09:41:18;;;;;;;5.63;3.00;;;;;;;-143.84;36.27;45001.47;5071594;28;20484;-74
2022/10/17 09:43:46;;;;;;;3.33;3.03;;;;;;;-143.84;35.67;45031.94;5091231;28;20447;-74
2022/10/17 09:46:18;;;;;;;5.30;2.53;;;;;;;-143.84;35.88;44986.22;5091653;28;20447;-74
2022/10/17 09:48:51;;;;;;;9.90;3.30;;;;;;;-143.84;35.59;45018.59;5091677;28;20436;-74
2022/10/17 09:51:18;;;;;;;18.57;2.80;;;;;;;-143.84;36.48;45022.41;5091610;28;20509;-73
2022/10/17 09:53:50;;;;;;;4.87;3.57;;;;;;;-143.84;36.31;44984.31;5091204;28;20432;-74
2022/10/17 09:56:20;;;;;;;5.23;3.00;;;;;;;-143.84;36.46;45018.59;5091249;28;20444;-74
2022/10/17 09:58:49;;;;;;;5.90;3.23;;;;;;;-143.84;35.56;45010.97;5090959;28;20435;-74
2022/10/17 10:01:19;;;;;;;9.50;3.43;;;;;;;-143.84;37.04;45009.09;5091416;28;20486;-74
2022/10/17 10:03:48;;;;;;;6.03;2.90;;;;;;;-143.84;36.53;44999.56;5091361;28;20498;-74
2022/10/17 10:06:18;;;;;;;7.97;3.03;;;;;;;-143.84;36.26;44995.75;5091131;28;20448;-74
2022/10/17 10:08:51;;;;;;;4.93;3.10;;;;;;;-143.84;35.53;45014.78;5090718;28;20444;-74
2022/10/17 10:11:22;;;;;;;7.13;3.67;;;;;;;-143.84;35.85;45018.59;5090152;28;20451;-75
2022/10/17 10:13:50;;;;;;;5.33;3.63;;;;;;;-143.84;35.86;45012.88;5090450;28;20437;-74
2022/10/17 10:16:23;;;;;;;9.97;3.90;;;;;;;-143.84;35.90;44972.91;5088590;28;20471;-74
2022/10/17 10:18:53;;;;;;;7.23;2.87;;;;;;;-143.84;35.96;45016.69;5089612;28;20987;-74
2022/10/17 10:21:21;;;;;;;5.67;3.90;;;;;;;-143.84;35.78;45030.03;5090454;28;20476;-74
2022/10/17 10:24:05;;;;;;;4.60;3.40;;;;;;;-143.84;35.85;44999.56;5090422;28;21010;-75
2022/10/17 10:26:38;;;;;;;4.53;2.77;;;;;;;-143.84;36.00;45026.22;5090948;28;20431;-75
2022/10/17 10:29:19;;;;;;;11.27;3.67;;;;;;;-143.84;35.94;45005.28;5091269;28;20431;-75
2022/10/17 10:31:47;;;;;;;9.67;3.60;;;;;;;-143.84;36.22;45028.13;5091303;28;20485;-75
2022/10/17 10:34:24;;;;;;;2.97;2.60;;;;;;;-143.84;36.55;45022.41;5091490;28;20448;-75
2022/10/17 10:36:57;;;;;;;5.30;2.90;;;;;;;-143.84;36.90;45003.38;5073740;28;21049;-75
2022/10/17 10:39:34;;;;;;;4.37;2.73;;;;;;;-143.84;37.31;45052.88;5091397;28;20856;-75
2022/10/17 10:42:03;;;;;;;4.37;2.97;;;;;;;-143.84;37.50;45005.28;5091377;28;20430;-75
2022/10/17 10:44:33;;;;;;;4.80;2.40;;;;;;;-143.84;37.48;45030.03;5091473;28;20482;-76
2022/10/17 10:47:08;;;;;;;6.63;3.07;;;;;;;-143.84;36.74;45005.28;5091005;28;20959;-75
2022/10/17 10:49:39;;;;;;;10.90;3.33;;;;;;;-143.84;37.60;45003.38;5091789;28;20432;-75
2022/10/17 10:52:10;;;;;;;7.70;2.63;;;;;;;-143.84;37.81;44999.56;5091275;28;20443;-76
2022/10/17 10:54:42;;;;;;;9.90;2.57;;;;;;;-143.84;38.06;45009.09;5091234;28;20444;-75
2022/10/17 10:57:18;;;;;;;3.27;2.97;;;;;;;-143.84;38.24;45031.94;5091491;28;20424;-75
2022/10/17 10:59:55;;;;;;;2.97;2.47;;;;;;;-143.84;38.49;45039.53;5091505;28;20506;-75
2022/10/17 11:02:27;;;;;;;2.80;2.37;;;;;;;-143.84;38.49;45014.78;5091227;28;20435;-75
2022/10/17 11:05:01;;;;;;;7.83;2.60;;;;;;;-143.84;38.38;45031.94;5091570;28;20840;-75
2022/10/17 11:07:33;;;;;;;3.27;2.97;;;;;;;-143.84;38.81;45033.84;5091071;28;20497;-75
2022/10/17 11:10:08;;;;;;;7.30;2.77;;;;;;;-143.84;38.97;45012.88;5090325;28;20788;-75
2022/10/17 11:12:41;;;;;;;3.80;2.17;;;;;;;-143.84;39.56;45033.84;5090923;28;20436;-75
2022/10/17 11:15:20;;;;;;;12.83;2.50;;;;;;;-143.84;39.63;45054.78;5090374;28;20432;-74
2022/10/17 11:17:56;;;;;;;9.23;3.80;;;;;;;-143.84;40.15;44999.56;5088848;28;20553;-74
2022/10/17 11:20:32;;;;;;;5.47;3.33;;;;;;;-143.84;40.20;44997.66;5088933;28;20485;-74
2022/10/17 11:23:10;;;;;;;3.17;2.30;;;;;;;-143.84;39.91;45020.50;5088705;28;20446;-74
2022/10/17 11:25:39;;;;;;;3.60;2.30;;;;;;;-143.84;38.76;45022.41;5088721;28;20498;-75
2022/10/17 11:28:14;;;;;;;2.43;2.23;;;;;;;-143.84;39.37;45012.88;5088723;28;20436;-74